Time;durP1;ratioP1;P1;durP2;ratioP2;P2;SDS_P1;SDS_P2;PMS_P1;PMS_P2;Temp;Humidity;BMP_temperature;BMP_pressure;BME280_temperature;BME280_humidity;BME280_pressure;Samples;Min_cycle;Max_cycle;Signal;HPM_P1;HPM_P2
2022/04/12 00:01:05;;;;;;;10.82;6.25;;;;;;;6.27;58.49;100979.56;4953309;28;20119;-85
2022/04/12 00:03:32;;;;;;;15.00;6.95;;;;;;;6.26;58.48;100980.41;4949081;28;20054;-85
2022/04/12 00:05:58;;;;;;;9.40;7.30;;;;;;;6.25;58.29;100972.59;4947136;28;20051;-85
2022/04/12 00:08:25;;;;;;;11.20;7.13;;;;;;;6.24;58.39;100973.44;4931229;28;20057;-85
2022/04/12 00:10:51;;;;;;;9.70;7.03;;;;;;;6.22;58.77;100976.03;4948004;28;20911;-84
2022/04/12 00:13:18;;;;;;;10.73;8.25;;;;;;;6.20;58.43;100972.53;4930314;28;20342;-85
2022/04/12 00:15:48;;;;;;;12.43;7.70;;;;;;;6.16;58.82;100962.94;4950044;28;20062;-85
2022/04/12 00:20:59;;;;;;;7.07;6.38;;;;;;;6.09;59.33;100962.00;4950280;28;20054;-85
2022/04/12 00:23:26;;;;;;;13.88;8.98;;;;;;;6.06;59.70;100963.66;4949723;28;20133;-85
2022/04/12 00:25:53;;;;;;;8.65;6.30;;;;;;;6.06;60.04;100961.97;4927371;28;20058;-84
2022/04/12 00:28:20;;;;;;;10.15;7.45;;;;;;;6.04;59.74;100957.59;4965939;28;20061;-84
2022/04/12 00:30:47;;;;;;;10.77;6.68;;;;;;;6.00;59.72;100956.66;4950070;28;20073;-85
2022/04/12 00:33:14;;;;;;;9.95;7.38;;;;;;;5.96;60.17;100953.09;4931966;28;20065;-86
2022/04/12 00:35:40;;;;;;;11.82;7.28;;;;;;;5.92;59.89;100955.66;4929867;28;20113;-84
2022/04/12 00:38:17;;;;;;;13.43;8.00;;;;;;;5.89;60.37;100948.69;4933373;28;20149;-85
2022/04/12 00:40:46;;;;;;;9.75;7.07;;;;;;;5.85;60.16;100941.66;4950455;28;20039;-84
2022/04/12 00:43:13;;;;;;;10.32;7.32;;;;;;;5.83;60.78;100942.50;4951038;28;20070;-85
2022/04/12 00:45:39;;;;;;;9.23;8.10;;;;;;;5.78;61.14;100930.31;4935536;28;20710;-84
2022/04/12 00:48:06;;;;;;;10.63;8.07;;;;;;;5.76;60.91;100932.03;4946950;28;20173;-85
2022/04/12 00:50:32;;;;;;;10.45;7.60;;;;;;;5.73;61.00;100925.91;4963225;28;20102;-85
2022/04/12 00:53:00;;;;;;;9.88;7.65;;;;;;;5.72;61.00;100925.03;4935795;28;20300;-85
2022/04/12 00:55:27;;;;;;;12.40;8.70;;;;;;;5.70;61.20;100918.94;4948648;28;20054;-86
2022/04/12 00:57:53;;;;;;;11.27;7.22;;;;;;;5.65;61.42;100919.72;4952841;28;20069;-85
2022/04/12 01:00:20;;;;;;;9.70;7.68;;;;;;;5.62;61.38;100913.63;4946082;28;20053;-85
2022/04/12 01:02:47;;;;;;;11.43;7.90;;;;;;;5.59;61.50;100921.38;4951352;28;20055;-85
2022/04/12 01:05:14;;;;;;;15.15;8.75;;;;;;;5.56;61.97;100916.13;4927170;28;20062;-85
2022/04/12 01:07:44;;;;;;;10.43;7.47;;;;;;;5.55;62.00;100913.50;4945614;28;20498;-85
2022/04/12 01:10:10;;;;;;;11.35;7.93;;;;;;;5.52;62.32;100919.53;4944348;28;20552;-86
2022/04/12 01:12:39;;;;;;;11.45;8.10;;;;;;;5.49;61.79;100921.19;4966722;28;20478;-84
2022/04/12 01:15:19;;;;;;;10.70;7.90;;;;;;;5.46;62.41;100916.81;4929384;28;20058;-84
2022/04/12 01:17:48;;;;;;;11.65;8.60;;;;;;;5.43;62.64;100916.78;4931773;28;20093;-85
2022/04/12 01:20:17;;;;;;;12.63;8.27;;;;;;;5.41;62.87;100908.06;4944581;28;20054;-85
2022/04/12 01:23:07;;;;;;;13.55;8.00;;;;;;;5.37;62.84;100903.69;4948302;28;20137;-85
2022/04/12 01:25:34;;;;;;;11.10;7.38;;;;;;;5.31;62.70;100904.47;4927559;28;20119;-86
2022/04/12 01:28:00;;;;;;;15.95;9.02;;;;;;;5.26;63.43;100896.59;4948693;28;20042;-85
2022/04/12 01:30:27;;;;;;;12.77;8.82;;;;;;;5.24;63.73;100903.50;4930384;28;20574;-84
2022/04/12 01:32:53;;;;;;;14.43;7.88;;;;;;;5.19;63.54;100896.47;4962336;28;20695;-84
2022/04/12 01:35:20;;;;;;;12.27;8.45;;;;;;;5.16;63.93;100902.47;4941131;28;20055;-85
2022/04/12 01:37:47;;;;;;;13.35;8.75;;;;;;;5.12;63.82;100901.56;4932376;28;20064;-85
2022/04/12 01:40:13;;;;;;;12.23;9.52;;;;;;;5.12;64.07;100893.78;4946699;28;20106;-85
2022/04/12 01:42:40;;;;;;;14.75;9.18;;;;;;;5.09;64.61;100888.53;4918311;28;20057;-84
2022/04/12 01:45:08;;;;;;;10.35;7.93;;;;;;;5.09;64.76;100888.53;4932242;28;20069;-85
2022/04/12 01:47:37;;;;;;;12.18;8.90;;;;;;;5.08;64.78;100891.09;4938023;28;20047;-84
2022/04/12 01:50:07;;;;;;;16.15;8.25;;;;;;;5.04;65.14;100894.50;4926681;28;20458;-85
2022/04/12 01:52:35;;;;;;;13.75;8.40;;;;;;;5.00;65.15;100890.97;4928377;28;20413;-85
2022/04/12 01:55:02;;;;;;;12.02;8.50;;;;;;;4.97;65.20;100891.78;4928970;28;20051;-84
2022/04/12 01:57:29;;;;;;;13.25;8.73;;;;;;;4.96;65.48;100889.16;4926530;28;20057;-84
2022/04/12 01:59:57;;;;;;;12.00;8.00;;;;;;;4.92;65.48;100897.75;4932767;28;20065;-86
2022/04/12 02:02:24;;;;;;;12.93;8.98;;;;;;;4.89;65.86;100895.06;4945563;28;20085;-84
2022/04/12 02:04:53;;;;;;;12.18;9.38;;;;;;;4.86;65.57;100897.63;4947844;28;20188;-84
2022/04/12 02:07:20;;;;;;;14.70;9.40;;;;;;;4.83;66.20;100898.44;4959123;28;20102;-84
2022/04/12 02:09:47;;;;;;;12.00;9.25;;;;;;;4.82;66.44;100901.88;4933799;28;20053;-84
2022/04/12 02:12:13;;;;;;;11.65;9.15;;;;;;;4.80;65.98;100903.59;4929548;28;20390;-84
2022/04/12 02:14:40;;;;;;;11.98;9.43;;;;;;;4.76;66.42;100902.66;4953968;28;20050;-85
2022/04/12 02:17:06;;;;;;;13.85;9.20;;;;;;;4.71;66.59;100893.91;4931762;28;20051;-85
2022/04/12 02:19:33;;;;;;;10.82;9.30;;;;;;;4.70;66.92;100902.53;4946610;28;20038;-84
2022/04/12 02:21:59;;;;;;;11.63;9.02;;;;;;;4.68;67.28;100895.56;4932250;28;20050;-85
2022/04/12 02:24:25;;;;;;;12.48;9.65;;;;;;;4.64;67.29;100887.72;4933627;28;20050;-84
2022/04/12 02:26:52;;;;;;;12.18;8.75;;;;;;;4.61;67.11;100887.66;4926242;28;20161;-84
2022/04/12 02:29:18;;;;;;;14.07;9.35;;;;;;;4.56;67.81;100886.72;4949372;28;20055;-83
2022/04/12 02:31:45;;;;;;;14.25;9.88;;;;;;;4.53;67.61;100878.88;4936858;28;20050;-85
2022/04/12 02:34:11;;;;;;;11.40;9.07;;;;;;;4.51;68.17;100883.16;4932147;28;20046;-85
2022/04/12 02:36:38;;;;;;;16.48;9.40;;;;;;;4.50;67.86;100878.81;4930560;28;20133;-85
2022/04/12 02:39:05;;;;;;;13.02;9.32;;;;;;;4.50;67.95;100880.50;4931415;28;20058;-84
2022/04/12 02:41:31;;;;;;;11.38;8.73;;;;;;;4.46;68.23;100880.47;4968818;28;20121;-84
2022/04/12 02:43:58;;;;;;;14.70;9.48;;;;;;;4.47;68.61;100876.13;4933803;28;20089;-85
2022/04/12 02:46:24;;;;;;;12.05;9.63;;;;;;;4.45;68.44;100870.94;4949272;28;20069;-84
2022/04/12 02:48:51;;;;;;;15.02;10.82;;;;;;;4.44;68.96;100873.50;4932813;28;20141;-85
2022/04/12 02:51:18;;;;;;;17.50;9.75;;;;;;;4.42;68.94;100876.06;4948974;28;20121;-84
2022/04/12 02:53:44;;;;;;;12.20;9.23;;;;;;;4.40;68.87;100876.88;4931599;28;20125;-85
2022/04/12 02:56:11;;;;;;;13.43;9.57;;;;;;;4.35;68.84;100870.72;4931337;28;20472;-85
2022/04/12 02:58:37;;;;;;;14.40;10.35;;;;;;;4.34;69.15;100876.75;4968533;28;20050;-84
2022/04/12 03:01:04;;;;;;;14.82;10.02;;;;;;;4.33;69.47;100878.47;4930997;28;20054;-84
2022/04/12 03:03:30;;;;;;;15.40;10.18;;;;;;;4.32;69.48;100878.47;4951250;28;20043;-87
2022/04/12 03:05:57;;;;;;;17.40;11.65;;;;;;;4.32;69.70;100875.88;4928096;28;20043;-84
2022/04/12 03:08:23;;;;;;;12.68;10.75;;;;;;;4.29;69.72;100877.53;4950192;28;20058;-84
2022/04/12 03:10:50;;;;;;;15.57;9.55;;;;;;;4.32;69.90;100886.22;4933480;28;20046;-85
2022/04/12 03:13:16;;;;;;;13.68;10.93;;;;;;;4.34;69.76;100872.47;4929052;28;20046;-84
2022/04/12 03:15:43;;;;;;;18.10;10.95;;;;;;;4.34;70.02;100869.88;4932677;28;20189;-84
2022/04/12 03:18:10;;;;;;;15.65;10.63;;;;;;;4.35;69.67;100863.81;4934621;28;20046;-85
2022/04/12 03:20:37;;;;;;;13.55;9.75;;;;;;;4.38;69.22;100871.69;4928333;28;20050;-84
2022/04/12 03:23:03;;;;;;;17.00;11.07;;;;;;;4.39;69.39;100875.13;4928883;28;20928;-85
2022/04/12 03:25:30;;;;;;;14.48;10.32;;;;;;;4.41;68.99;100873.44;4931549;28;20051;-85
2022/04/12 03:27:56;;;;;;;18.98;11.32;;;;;;;4.44;68.85;100873.50;4966334;28;20053;-84
2022/04/12 03:30:23;;;;;;;14.60;9.75;;;;;;;4.46;68.75;100872.69;4938688;28;20086;-84
2022/04/12 03:32:49;;;;;;;13.35;9.45;;;;;;;4.49;68.69;100873.59;4955129;28;20364;-84
2022/04/12 03:35:15;;;;;;;14.55;10.07;;;;;;;4.52;68.77;100881.44;4969266;28;20051;-84
2022/04/12 03:37:42;;;;;;;12.70;8.45;;;;;;;4.53;68.56;100878.00;4939511;28;20146;-87
2022/04/12 03:40:10;;;;;;;13.80;8.95;;;;;;;4.54;68.54;100874.56;4949088;28;20069;-84
2022/04/12 03:42:37;;;;;;;13.77;8.77;;;;;;;4.55;68.29;100874.59;4934647;28;20125;-85
2022/04/12 03:45:04;;;;;;;16.98;10.60;;;;;;;4.58;68.22;100868.59;4963475;28;20074;-85
2022/04/12 03:47:31;;;;;;;13.20;9.45;;;;;;;4.60;68.36;100864.28;4973960;28;20252;-84
2022/04/12 03:49:57;;;;;;;13.27;8.90;;;;;;;4.60;68.03;100865.19;4935678;28;20054;-84
2022/04/12 03:52:24;;;;;;;11.65;9.77;;;;;;;4.61;68.06;100860.88;4935783;28;20103;-83
2022/04/12 03:54:50;;;;;;;16.50;9.43;;;;;;;4.61;68.19;100864.31;4949371;28;20050;-86
2022/04/12 03:57:17;;;;;;;12.25;8.35;;;;;;;4.63;68.06;100872.16;4930552;28;20051;-84
2022/04/12 03:59:44;;;;;;;15.70;10.30;;;;;;;4.61;67.24;100874.69;4933797;28;20154;-84
2022/04/12 04:02:10;;;;;;;12.52;9.18;;;;;;;4.60;67.81;100872.06;4951798;28;20503;-85
2022/04/12 04:04:37;;;;;;;12.70;9.35;;;;;;;4.58;68.18;100869.47;4929817;28;20050;-85
2022/04/12 04:07:03;;;;;;;13.82;8.93;;;;;;;4.55;68.09;100861.63;4963286;28;20047;-86
2022/04/12 04:09:30;;;;;;;12.82;8.57;;;;;;;4.53;68.04;100862.44;4950216;28;20435;-85
2022/04/12 04:11:56;;;;;;;16.65;9.00;;;;;;;4.53;68.18;100875.41;4969975;28;20057;-85
2022/04/12 04:14:23;;;;;;;22.15;10.57;;;;;;;4.53;68.05;100870.22;4950063;28;20203;-84
2022/04/12 04:16:49;;;;;;;17.60;10.07;;;;;;;4.51;67.99;100864.13;4949159;28;20051;-84
2022/04/12 04:19:16;;;;;;;16.10;10.20;;;;;;;4.50;68.41;100872.72;4969327;28;20398;-85
2022/04/12 04:21:42;;;;;;;13.63;9.45;;;;;;;4.44;68.40;100871.78;4930451;28;20185;-85
2022/04/12 04:24:09;;;;;;;14.25;9.40;;;;;;;4.40;68.50;100877.75;4937138;28;20505;-85
2022/04/12 04:26:35;;;;;;;17.10;10.35;;;;;;;4.35;68.64;100876.78;4951884;28;20054;-85
2022/04/12 04:29:02;;;;;;;13.10;8.38;;;;;;;4.33;69.11;100875.00;4955792;28;20046;-85
2022/04/12 04:31:29;;;;;;;15.88;9.85;;;;;;;4.32;69.16;100886.22;4956145;28;20042;-84
2022/04/12 04:33:55;;;;;;;13.45;8.35;;;;;;;4.28;68.71;100886.16;4955457;28;20861;-86
2022/04/12 04:36:22;;;;;;;15.40;9.40;;;;;;;4.27;69.05;100880.94;4949964;28;20131;-84
2022/04/12 04:38:48;;;;;;;14.07;9.75;;;;;;;4.28;69.13;100880.97;4952231;28;20050;-87
2022/04/12 04:41:15;;;;;;;12.57;9.02;;;;;;;4.27;69.21;100884.41;4937480;28;20085;-84
2022/04/12 04:43:45;;;;;;;17.05;9.27;;;;;;;4.30;69.29;100887.06;4953677;28;20172;-86
2022/04/12 04:46:13;;;;;;;16.73;9.25;;;;;;;4.33;68.65;100887.94;4956317;28;20086;-87
2022/04/12 04:48:41;;;;;;;14.65;8.57;;;;;;;4.31;68.52;100895.72;4957608;28;20142;-86
2022/04/12 04:51:09;;;;;;;15.93;10.50;;;;;;;4.33;68.51;100899.22;4950451;28;20031;-86
2022/04/12 04:53:37;;;;;;;15.50;8.48;;;;;;;4.33;68.71;100900.91;4949245;28;20055;-87
2022/04/12 04:56:05;;;;;;;20.00;9.88;;;;;;;4.33;69.00;100899.22;4937289;28;20101;-86
2022/04/12 04:58:31;;;;;;;15.85;9.75;;;;;;;4.33;68.37;100903.50;4951007;28;20113;-86
2022/04/12 05:00:58;;;;;;;12.30;8.90;;;;;;;4.33;68.72;100901.81;4939675;28;21253;-86
2022/04/12 05:03:27;;;;;;;14.43;10.05;;;;;;;4.35;68.47;100904.44;4952356;28;20051;-87
2022/04/12 05:05:54;;;;;;;12.63;8.85;;;;;;;4.34;68.19;100894.91;4949344;28;20075;-86
2022/04/12 05:08:20;;;;;;;20.25;9.32;;;;;;;4.37;68.38;100902.72;4933914;28;20461;-87
2022/04/12 05:10:47;;;;;;;13.80;7.70;;;;;;;4.39;67.99;100906.22;4952969;28;20438;-86
2022/04/12 05:13:13;;;;;;;15.80;8.30;;;;;;;4.40;67.75;100908.00;4936777;28;20057;-87
2022/04/12 05:15:40;;;;;;;17.25;9.88;;;;;;;4.40;68.12;100905.41;4970380;28;20047;-86
2022/04/12 05:18:06;;;;;;;14.70;7.68;;;;;;;4.38;67.97;100904.47;4951994;28;20053;-86
2022/04/12 05:20:33;;;;;;;17.17;9.07;;;;;;;4.41;68.20;100904.56;4940444;28;20109;-87
2022/04/12 05:23:00;;;;;;;14.30;7.97;;;;;;;4.42;67.87;100902.00;4935380;28;20070;-86
2022/04/12 05:25:27;;;;;;;13.90;9.20;;;;;;;4.44;67.84;100905.47;4933702;28;20046;-87
2022/04/12 05:27:54;;;;;;;16.75;8.48;;;;;;;4.47;67.24;100902.06;4940634;28;20054;-87
2022/04/12 05:30:21;;;;;;;11.95;7.50;;;;;;;4.52;67.47;100897.00;4935965;28;20097;-86
2022/04/12 05:32:48;;;;;;;13.85;8.27;;;;;;;4.55;67.66;100895.34;4943567;28;20058;-86
2022/04/12 05:35:15;;;;;;;11.98;8.23;;;;;;;4.58;66.95;100890.19;4942479;28;20062;-86
2022/04/12 05:37:49;;;;;;;16.30;7.63;;;;;;;4.64;67.18;100898.09;4961627;28;20058;-86
2022/04/12 05:40:18;;;;;;;12.55;7.35;;;;;;;4.70;66.76;100892.16;4964575;28;20365;-86
2022/04/12 05:42:45;;;;;;;15.10;7.75;;;;;;;4.74;66.52;100886.16;4949423;28;20035;-86
2022/04/12 05:45:17;;;;;;;16.67;7.50;;;;;;;4.78;66.60;100890.59;4937664;28;20070;-86
2022/04/12 05:47:52;;;;;;;13.70;7.85;;;;;;;4.84;66.33;100881.16;4968339;28;20054;-86
2022/04/12 05:50:26;;;;;;;13.02;7.82;;;;;;;4.87;66.10;100887.28;4957952;28;20419;-87
2022/04/12 05:52:55;;;;;;;13.25;7.38;;;;;;;4.92;65.76;100887.38;4967429;28;20366;-86
2022/04/12 05:55:24;;;;;;;13.60;6.88;;;;;;;4.96;65.63;100878.78;4981568;28;20157;-87
2022/04/12 05:58:00;;;;;;;11.40;7.38;;;;;;;5.00;65.66;100878.00;4960539;28;20117;-85
2022/04/12 06:00:33;;;;;;;12.15;6.80;;;;;;;5.05;64.98;100871.16;4954416;28;20049;-86
2022/04/12 06:03:02;;;;;;;15.40;7.63;;;;;;;5.11;65.20;100868.69;4964685;28;20034;-86
2022/04/12 06:05:32;;;;;;;9.20;6.22;;;;;;;5.18;64.77;100876.56;4965631;28;20053;-84
2022/04/12 06:08:03;;;;;;;10.20;6.47;;;;;;;5.22;64.68;100874.03;4947609;28;20389;-85
2022/04/12 06:10:31;;;;;;;11.48;5.70;;;;;;;5.28;64.64;100870.69;4962335;28;20043;-86
2022/04/12 06:12:57;;;;;;;11.85;6.80;;;;;;;5.36;64.11;100875.97;4959814;28;20047;-86
2022/04/12 06:15:25;;;;;;;9.98;7.25;;;;;;;5.43;63.61;100880.44;4966784;28;20062;-86
2022/04/12 06:17:53;;;;;;;10.30;6.78;;;;;;;5.49;63.87;100885.72;4948750;28;20058;-87
2022/04/12 06:20:21;;;;;;;10.60;6.07;;;;;;;5.57;63.22;100886.72;4958571;28;20114;-86
2022/04/12 06:22:48;;;;;;;7.43;5.63;;;;;;;5.67;62.79;100886.84;4956342;28;20038;-86
2022/04/12 06:25:19;;;;;;;7.40;6.50;;;;;;;5.74;62.76;100892.16;4941126;28;21582;-84
2022/04/12 06:27:51;;;;;;;12.43;6.82;;;;;;;5.87;62.38;100888.00;4958109;28;20338;-87
2022/04/12 06:30:27;;;;;;;6.55;5.55;;;;;;;6.03;62.51;100890.88;4943336;28;20695;-87
2022/04/12 06:32:55;;;;;;;7.93;5.80;;;;;;;6.22;61.67;100877.25;4935464;28;20612;-85
2022/04/12 06:35:21;;;;;;;8.95;6.20;;;;;;;6.41;60.91;100886.16;4939086;28;20082;-87
2022/04/12 06:37:52;;;;;;;11.68;5.97;;;;;;;6.63;60.77;100888.97;4937424;28;20454;-86
2022/04/12 06:40:19;;;;;;;10.00;6.22;;;;;;;6.87;59.53;100882.28;4949769;28;20072;-86
2022/04/12 06:42:48;;;;;;;6.43;5.15;;;;;;;7.08;59.02;100881.66;4933747;28;20070;-86
2022/04/12 06:45:14;;;;;;;10.38;5.55;;;;;;;7.28;58.84;100879.19;4953109;28;20063;-85
2022/04/12 06:47:42;;;;;;;8.68;5.80;;;;;;;7.42;57.64;100888.00;4935583;28;20050;-86
2022/04/12 06:50:11;;;;;;;6.10;4.50;;;;;;;7.51;57.82;100889.81;4944188;28;20060;-86
2022/04/12 06:52:39;;;;;;;11.55;5.80;;;;;;;7.63;57.38;100896.84;4940937;28;20103;-86
2022/04/12 06:55:09;;;;;;;8.15;6.03;;;;;;;7.63;56.65;100894.22;4938951;28;20284;-86
2022/04/12 06:57:37;;;;;;;8.25;5.75;;;;;;;7.58;56.87;100896.78;4941373;28;20356;-85
2022/04/12 07:00:11;;;;;;;14.05;7.00;;;;;;;7.66;57.04;100896.84;4978522;28;20054;-87
2022/04/12 07:02:38;;;;;;;10.43;6.07;;;;;;;7.75;57.10;100891.69;4945152;28;20049;-85
2022/04/12 07:05:08;;;;;;;7.45;5.85;;;;;;;7.90;56.38;100901.34;4941643;28;20610;-86
2022/04/12 07:07:39;;;;;;;9.20;5.72;;;;;;;8.03;56.27;100906.63;4947617;28;20051;-84
2022/04/12 07:10:09;;;;;;;9.95;5.32;;;;;;;8.16;55.87;100910.19;4961799;28;20054;-84
2022/04/12 07:12:37;;;;;;;8.65;6.38;;;;;;;8.23;55.10;100898.91;4977658;28;20051;-84
2022/04/12 07:15:05;;;;;;;11.85;6.15;;;;;;;8.22;55.37;100912.81;4963773;28;20042;-85
2022/04/12 07:17:32;;;;;;;7.75;6.22;;;;;;;8.21;54.90;100904.13;4946002;28;20050;-83
2022/04/12 07:20:04;;;;;;;7.40;5.82;;;;;;;8.27;55.18;100905.91;4949143;28;20059;-85
2022/04/12 07:22:33;;;;;;;8.15;6.03;;;;;;;8.48;55.03;100906.88;4949817;28;20046;-86
2022/04/12 07:25:02;;;;;;;12.00;5.43;;;;;;;8.55;54.84;100906.03;4964569;28;20042;-86
2022/04/12 07:27:36;;;;;;;13.30;6.20;;;;;;;8.51;54.97;100899.91;4968541;28;20355;-86
2022/04/12 07:30:08;;;;;;;9.98;6.05;;;;;;;8.41;54.87;100893.78;4953849;28;20074;-85
2022/04/12 07:32:38;;;;;;;7.63;5.82;;;;;;;8.39;55.35;100895.50;4964550;28;20074;-84
2022/04/12 07:35:06;;;;;;;7.68;5.80;;;;;;;8.49;55.11;100896.44;4952130;28;20043;-87
2022/04/12 07:37:33;;;;;;;15.63;6.18;;;;;;;8.61;54.95;100903.44;4949588;28;20650;-86
2022/04/12 07:40:00;;;;;;;9.70;6.72;;;;;;;8.87;54.33;100903.50;4967656;28;20038;-85
2022/04/12 07:42:27;;;;;;;9.57;5.70;;;;;;;9.17;54.19;100899.19;4954205;28;20066;-84
2022/04/12 07:44:54;;;;;;;8.57;5.93;;;;;;;9.80;52.72;100908.75;4955549;28;20050;-85
2022/04/12 07:47:21;;;;;;;10.30;5.55;;;;;;;10.41;50.65;100907.72;4962654;28;20192;-87
2022/04/12 07:49:48;;;;;;;9.00;5.15;;;;;;;11.14;49.60;100915.19;4965340;28;20101;-86
2022/04/12 07:52:14;;;;;;;10.80;6.07;;;;;;;11.78;48.07;100909.41;4962698;28;20311;-86
2022/04/12 07:54:41;;;;;;;8.05;6.47;;;;;;;12.40;46.87;100910.50;4964829;28;20058;-86
2022/04/12 07:57:08;;;;;;;10.68;6.93;;;;;;;13.12;45.99;100899.88;4963747;28;20038;-85
2022/04/12 07:59:36;;;;;;;11.82;6.80;;;;;;;13.80;43.50;100903.16;4948859;28;20095;-86
2022/04/12 08:02:03;;;;;;;13.68;7.80;;;;;;;14.29;43.67;100903.97;4954066;28;20300;-85
2022/04/12 08:04:30;;;;;;;6.50;5.18;;;;;;;14.77;41.79;100909.13;4962341;28;20113;-85
2022/04/12 08:06:57;;;;;;;8.48;5.30;;;;;;;15.03;40.88;100905.00;4962341;28;20058;-84
2022/04/12 08:09:23;;;;;;;9.55;5.30;;;;;;;15.09;40.55;100896.13;4964641;28;20058;-85
2022/04/12 08:11:51;;;;;;;11.77;5.20;;;;;;;15.25;40.94;100893.97;4959871;28;20061;-86
2022/04/12 08:14:18;;;;;;;5.88;4.95;;;;;;;15.46;40.49;100892.56;4957384;28;20065;-85
2022/04/12 08:16:44;;;;;;;7.43;5.43;;;;;;;15.48;39.41;100893.41;4959456;28;20046;-85
2022/04/12 08:19:11;;;;;;;6.40;5.57;;;;;;;15.34;40.19;100893.72;4953814;28;20081;-85
2022/04/12 08:21:40;;;;;;;8.15;4.85;;;;;;;14.97;39.52;100910.47;4957458;28;20424;-85
2022/04/12 08:24:08;;;;;;;7.43;4.82;;;;;;;14.68;40.37;100907.56;4940454;28;20050;-84
2022/04/12 08:26:35;;;;;;;9.25;4.68;;;;;;;14.78;39.84;100920.53;4960386;28;20065;-86
2022/04/12 08:29:01;;;;;;;6.18;5.57;;;;;;;15.22;39.29;100918.63;4942319;28;20046;-85
2022/04/12 08:31:28;;;;;;;8.52;4.65;;;;;;;15.50;38.32;100908.28;4959089;28;20054;-86
2022/04/12 08:33:54;;;;;;;5.47;4.95;;;;;;;15.81;38.08;100898.72;4955184;28;20047;-86
2022/04/12 08:36:22;;;;;;;8.43;5.13;;;;;;;16.03;36.65;100889.31;4950996;28;20055;-86
2022/04/12 08:38:51;;;;;;;6.85;5.13;;;;;;;16.15;36.41;100877.53;4958192;28;20390;-86
2022/04/12 08:41:19;;;;;;;9.25;5.10;;;;;;;16.38;36.77;100882.13;4935083;28;20043;-85
2022/04/12 08:43:46;;;;;;;13.52;5.65;;;;;;;16.57;35.30;100892.19;4940112;28;20137;-86
2022/04/12 08:46:12;;;;;;;8.93;5.20;;;;;;;16.94;34.98;100884.91;4950128;28;20062;-85
2022/04/12 08:48:40;;;;;;;8.10;4.80;;;;;;;17.10;35.16;100880.00;4951286;28;20457;-84
2022/04/12 08:51:07;;;;;;;5.43;3.80;;;;;;;17.22;34.03;100871.63;4956902;28;20335;-86
2022/04/12 08:53:33;;;;;;;11.05;4.82;;;;;;;17.68;34.11;100877.16;4951416;28;20045;-85
2022/04/12 08:56:00;;;;;;;4.50;4.03;;;;;;;18.39;33.21;100874.59;4953064;28;20047;-87
2022/04/12 08:58:27;;;;;;;5.97;4.07;;;;;;;18.64;32.60;100873.66;4943942;28;20057;-86
2022/04/12 09:00:54;;;;;;;6.07;4.53;;;;;;;18.75;31.62;100870.59;4943098;28;20054;-85
2022/04/12 09:03:20;;;;;;;4.40;4.03;;;;;;;18.12;32.47;100865.91;4958321;28;20042;-86
2022/04/12 09:05:47;;;;;;;6.82;4.32;;;;;;;17.75;32.88;100859.28;4937085;28;20086;-88
2022/04/12 09:08:28;;;;;;;6.70;4.63;;;;;;;17.74;33.73;100854.91;4966017;28;20046;-86
2022/04/12 09:11:05;;;;;;;9.35;5.32;;;;;;;17.98;34.08;100856.69;4957031;28;20567;-85
2022/04/12 09:13:33;;;;;;;8.95;4.88;;;;;;;18.15;33.68;100861.38;4953290;28;20047;-86
2022/04/12 09:16:00;;;;;;;5.25;4.38;;;;;;;18.38;33.79;100864.06;4979281;28;20069;-86
2022/04/12 09:18:39;;;;;;;4.72;4.32;;;;;;;18.76;33.23;100872.31;4955934;28;20062;-86
2022/04/12 09:21:25;;;;;;;10.50;4.78;;;;;;;19.21;32.60;100871.41;4944629;28;20109;-85
2022/04/12 09:23:55;;;;;;;10.00;4.82;;;;;;;19.64;32.03;100863.41;4969905;28;20057;-87
2022/04/12 09:26:28;;;;;;;6.90;5.15;;;;;;;19.91;31.82;100861.34;4937987;28;20054;-86
2022/04/12 09:28:58;;;;;;;6.63;5.32;;;;;;;19.90;31.81;100850.81;4963025;28;20051;-86
2022/04/12 09:31:26;;;;;;;5.78;5.13;;;;;;;20.10;31.57;100849.88;4962732;28;20038;-86
2022/04/12 09:33:55;;;;;;;6.82;5.40;;;;;;;20.60;31.09;100849.31;4946414;28;20054;-85
2022/04/12 09:36:22;;;;;;;8.05;4.85;;;;;;;21.18;30.14;100839.44;4952202;28;20055;-86
2022/04/12 09:38:58;;;;;;;5.13;4.40;;;;;;;21.86;29.58;100846.59;4939632;28;20078;-86
2022/04/12 09:41:27;;;;;;;6.60;4.80;;;;;;;22.32;28.08;100837.94;4972191;28;20062;-87
2022/04/12 09:44:07;;;;;;;6.93;5.38;;;;;;;22.36;28.50;100834.19;4955019;28;20031;-86
2022/04/12 09:46:36;;;;;;;5.22;4.72;;;;;;;22.12;28.27;100833.69;4955883;28;20059;-84
2022/04/12 09:49:08;;;;;;;6.28;4.47;;;;;;;21.98;27.97;100832.66;4936693;28;20050;-86
2022/04/12 09:51:36;;;;;;;6.38;4.53;;;;;;;21.90;28.00;100826.00;4937762;28;20470;-87
2022/04/12 09:54:08;;;;;;;6.05;4.63;;;;;;;22.03;27.72;100827.06;4950905;28;20505;-84
2022/04/12 09:56:38;;;;;;;5.85;4.63;;;;;;;22.14;28.17;100826.47;4931298;28;20055;-86
2022/04/12 09:59:07;;;;;;;6.35;4.80;;;;;;;22.33;27.87;100820.97;4943224;28;20070;-85
2022/04/12 10:01:39;;;;;;;10.40;8.07;;;;;;;22.66;27.58;100822.72;4957745;28;20065;-86
2022/04/12 10:04:10;;;;;;;6.53;5.90;;;;;;;23.26;26.29;100802.41;4934988;28;20497;-85
2022/04/12 10:06:43;;;;;;;4.97;4.47;;;;;;;23.87;25.73;100799.56;4970672;28;20103;-89
2022/04/12 10:09:17;;;;;;;8.05;5.50;;;;;;;24.10;25.45;100799.00;4938412;28;20086;-87
2022/04/12 10:11:44;;;;;;;7.30;5.80;;;;;;;24.52;25.19;100803.50;4952134;28;20584;-85
2022/04/12 10:14:15;;;;;;;5.88;5.28;;;;;;;24.28;24.57;100788.94;4937837;28;20133;-86
2022/04/12 10:16:42;;;;;;;5.95;4.97;;;;;;;24.35;24.84;100781.38;4937966;28;20046;-86
2022/04/12 10:19:09;;;;;;;6.38;4.90;;;;;;;24.76;24.72;100774.31;4937910;28;20070;-85
2022/04/12 10:21:36;;;;;;;8.68;5.13;;;;;;;25.04;23.27;100767.91;4956604;28;20055;-88
2022/04/12 10:24:04;;;;;;;8.73;5.22;;;;;;;25.36;23.82;100772.91;4949343;28;20084;-85
2022/04/12 10:26:31;;;;;;;5.63;4.55;;;;;;;25.72;23.05;100771.31;4953001;28;20051;-86
2022/04/12 10:29:01;;;;;;;5.88;5.00;;;;;;;26.04;22.16;100773.53;4957178;28;20072;-86
2022/04/12 10:31:30;;;;;;;5.82;4.75;;;;;;;26.51;21.79;100772.84;4942796;28;20108;-87
2022/04/12 10:34:11;;;;;;;8.98;4.50;;;;;;;26.19;20.58;100779.59;4933108;28;20061;-87
2022/04/12 10:36:55;;;;;;;7.53;5.47;;;;;;;26.11;21.24;100781.97;4953745;28;20046;-86
2022/04/12 10:39:33;;;;;;;7.00;5.10;;;;;;;25.78;21.88;100769.16;4970750;28;20051;-87
2022/04/12 10:42:06;;;;;;;6.20;4.70;;;;;;;25.61;21.42;100789.13;4951407;28;20077;-86
2022/04/12 10:44:48;;;;;;;7.22;5.80;;;;;;;25.55;21.86;100775.19;4938486;28;20057;-88
2022/04/12 10:47:36;;;;;;;6.18;5.57;;;;;;;24.70;22.63;100778.22;4960127;28;20071;-88
2022/04/12 10:50:13;;;;;;;9.35;5.55;;;;;;;24.96;22.48;100774.78;4973838;28;20050;-87
2022/04/12 10:52:48;;;;;;;6.18;5.40;;;;;;;25.25;22.60;100773.66;4955613;28;20067;-88
2022/04/12 10:55:18;;;;;;;7.85;5.38;;;;;;;26.32;22.21;100765.28;4937208;28;20233;-85
2022/04/12 10:57:46;;;;;;;6.68;5.32;;;;;;;27.47;21.27;100761.09;4958650;28;20058;-86
2022/04/12 11:00:19;;;;;;;6.70;5.63;;;;;;;27.30;20.49;100758.81;4957575;28;20054;-87
2022/04/12 11:02:54;;;;;;;6.85;4.97;;;;;;;27.01;21.29;100753.88;4959007;28;20397;-86
2022/04/12 11:05:34;;;;;;;6.22;5.63;;;;;;;26.33;21.18;100761.63;4956061;28;20078;-86
2022/04/12 11:08:24;;;;;;;6.07;5.47;;;;;;;25.33;22.33;100750.81;4975667;28;20097;-88
2022/04/12 11:10:52;;;;;;;6.90;6.10;;;;;;;24.91;23.25;100753.66;4959734;28;20043;-85
2022/04/12 11:13:31;;;;;;;9.48;6.63;;;;;;;25.49;22.88;100742.56;4975608;28;20854;-85
2022/04/12 11:16:12;;;;;;;7.10;5.57;;;;;;;26.65;22.12;100753.00;4946563;28;20141;-85
2022/04/12 11:18:57;;;;;;;7.25;6.55;;;;;;;27.29;20.76;100749.06;4947799;28;20055;-85
2022/04/12 11:21:28;;;;;;;6.88;5.88;;;;;;;27.37;21.06;100749.31;4963800;28;20046;-86
2022/04/12 11:24:04;;;;;;;8.27;5.93;;;;;;;27.70;20.94;100751.19;4958424;28;20122;-85
2022/04/12 11:26:50;;;;;;;7.10;6.40;;;;;;;26.51;21.29;100741.47;4961140;28;20075;-87
2022/04/12 11:29:27;;;;;;;6.35;5.75;;;;;;;26.46;21.97;100743.63;4958303;28;20047;-87
2022/04/12 11:31:56;;;;;;;6.25;5.40;;;;;;;27.57;20.99;100742.38;4959468;28;20134;-87
2022/04/12 11:34:26;;;;;;;6.00;5.40;;;;;;;28.29;19.35;100734.84;4939918;28;20043;-86